Barney Turecamo — WDC6808 — position and weather

sailwx.info

Track history (hours):
 
Tides and Currents Weather Stations Pressure Air Temp Water Temp Dewpoint Dewpoint Depression Visibility Wind Speed Wind Dir Waves Ship Positions

Barney Turecamo

Owner: Moran Towing Corporation, New Canaan, CT. More information available from US FCC via Universal Licensing System and Coast Guard Vessel Documentation Center.

Last reported at 2017-Sep-18 20:09 UTC. Time now 2017-Sep-19 22:19 UTC.
Position N 40°55' W 073°55'.

Length 156 m; draft 7 m.

Type: Tug. MMSI: 367061610.

Date/timePositionNaut miles runAvg speedWind from/ knotsBaromVisibWave heightAir tempDewpointWater temp
2017-Sep-18 20:09N 40°55' W 073°55'1 7.7
2017-Sep-18 19:58N 40°54' W 073°55'3 7.2
2017-Sep-18 19:30N 40°51' W 073°57'3 6.8
2017-Sep-18 18:59N 40°48' W 073°59'3 6.4
2017-Sep-18 18:30N 40°45' W 074°01'3 7.0
2017-Sep-18 18:00N 40°42' W 074°02'3 6.5
2017-Sep-18 17:30N 40°39' W 074°04'1 1.3
2017-Sep-18 17:00N 40°39' W 074°05'0 0.0
2017-Sep-18 16:30N 40°39' W 074°05'0 0.0
2017-Sep-18 16:00N 40°39' W 074°05'2 4.4
2017-Sep-18 15:30N 40°38' W 074°08'0 0.0
2017-Sep-18 15:00N 40°38' W 074°08'0 0.0
2017-Sep-18 14:30N 40°38' W 074°08'0 0.0
2017-Sep-18 14:00N 40°38' W 074°08'0 0.0
2017-Sep-18 13:30N 40°38' W 074°08'0 0.0
2017-Sep-18 13:00N 40°38' W 074°08'0 0.0
2017-Sep-18 12:30N 40°38' W 074°08'0 0.0
2017-Sep-18 12:00N 40°38' W 074°08'0 0.0
2017-Sep-18 11:30N 40°38' W 074°08'0 0.0
2017-Sep-18 11:00N 40°38' W 074°08'2 4.4
2017-Sep-18 10:30N 40°39' W 074°05'0 0.0
2017-Sep-18 10:00N 40°39' W 074°05'0 0.0
2017-Sep-18 09:30N 40°39' W 074°05'0 0.0
2017-Sep-18 09:00N 40°39' W 074°05'0 0.0
2017-Sep-18 08:30N 40°39' W 074°05'0 0.0
2017-Sep-18 08:00N 40°39' W 074°05'0 0.0
2017-Sep-18 07:30N 40°39' W 074°05'0 0.0
2017-Sep-18 07:00N 40°39' W 074°05'0 0.0
2017-Sep-18 06:30N 40°39' W 074°05'0 0.0
2017-Sep-18 06:00N 40°39' W 074°05'0 0.0
2017-Sep-18 05:30N 40°39' W 074°05'0 0.2
2017-Sep-18 05:01N 40°39' W 074°05'2 5.0
2017-Sep-18 04:30N 40°37' W 074°03'1 1.2
2017-Sep-18 04:00N 40°37' W 074°03'2 1.8
2017-Sep-18 03:00N 40°35' W 074°01'0 0.0
2017-Sep-18 02:30N 40°35' W 074°01'0 0.0
2017-Sep-18 02:00N 40°35' W 074°01'0 0.1
2017-Sep-18 01:24N 40°35' W 074°01'0 0.0
2017-Sep-18 00:51N 40°35' W 074°01'0 0.0
2017-Sep-18 00:30N 40°35' W 074°01'0 0.1
2017-Sep-18 00:00N 40°35' W 074°01'0 0.1
2017-Sep-17 23:30N 40°36' W 074°01'0 0.0
2017-Sep-17 23:00N 40°36' W 074°01'0 0.0
2017-Sep-17 22:30N 40°36' W 074°01'0 0.1
2017-Sep-17 22:00N 40°36' W 074°01'0 0.1
2017-Sep-17 21:30N 40°36' W 074°01'0 0.0
2017-Sep-17 21:00N 40°36' W 074°01'0 0.0
2017-Sep-17 20:30N 40°36' W 074°01'0 0.1
2017-Sep-17 20:00N 40°36' W 074°01'0 0.6
2017-Sep-17 19:31N 40°36' W 074°02'4 7.2
2017-Sep-17 19:00N 40°39' W 074°04'3 6.8
2017-Sep-17 18:30N 40°38' W 074°09'3 5.9
2017-Sep-17 18:01N 40°38' W 074°12'0 0.1
2017-Sep-17 17:30N 40°38' W 074°12'0 0.0
2017-Sep-17 16:54N 40°38' W 074°12'0 0.0
2017-Sep-17 16:27N 40°38' W 074°12'0 0.0
2017-Sep-17 16:00N 40°38' W 074°12'0 0.0
2017-Sep-17 15:27N 40°38' W 074°12'0 0.0
2017-Sep-17 14:57N 40°38' W 074°12'0 0.0
2017-Sep-17 14:30N 40°38' W 074°12'0 0.0
2017-Sep-17 14:00N 40°38' W 074°12'0 0.0
2017-Sep-17 13:27N 40°38' W 074°12'0 0.0
2017-Sep-17 13:00N 40°38' W 074°12'0 0.0
2017-Sep-17 12:09N 40°38' W 074°12'0 0.0
2017-Sep-17 11:57N 40°38' W 074°12'0 0.0
2017-Sep-17 11:30N 40°38' W 074°12'0 0.0
2017-Sep-17 10:57N 40°38' W 074°12'0 0.0
2017-Sep-17 10:27N 40°38' W 074°12'0 0.0
2017-Sep-17 10:00N 40°38' W 074°12'0 0.0
2017-Sep-17 09:30N 40°38' W 074°12'0 0.0
2017-Sep-17 08:57N 40°38' W 074°12'0 0.0
2017-Sep-17 08:30N 40°38' W 074°12'0 0.0
2017-Sep-17 07:57N 40°38' W 074°12'0 0.0
2017-Sep-17 07:30N 40°38' W 074°12'0 0.0
2017-Sep-17 07:00N 40°38' W 074°12'0 0.0
2017-Sep-17 06:30N 40°38' W 074°12'0 0.0
2017-Sep-17 06:00N 40°38' W 074°12'0 0.0
2017-Sep-17 05:28N 40°38' W 074°12'0 0.0
2017-Sep-17 04:57N 40°38' W 074°12'0 0.0
2017-Sep-17 04:27N 40°38' W 074°12'0 0.0
2017-Sep-17 03:57N 40°38' W 074°12'0 0.0
2017-Sep-17 03:30N 40°38' W 074°12'0 0.0
2017-Sep-17 03:00N 40°38' W 074°12'0 0.0
2017-Sep-17 02:30N 40°38' W 074°12'0 0.0
2017-Sep-17 02:00N 40°38' W 074°12'0 0.0
2017-Sep-17 01:30N 40°38' W 074°12'0 0.0
2017-Sep-17 01:00N 40°38' W 074°12'0 0.0
2017-Sep-17 00:27N 40°38' W 074°12'0 0.0
2017-Sep-17 00:00N 40°38' W 074°12'0 0.0
2017-Sep-16 23:30N 40°38' W 074°12'0 0.0
2017-Sep-16 23:00N 40°38' W 074°12'0 0.0
2017-Sep-16 22:27N 40°38' W 074°12'0 0.0
2017-Sep-16 21:57N 40°38' W 074°12'0 0.0
2017-Sep-16 21:27N 40°38' W 074°12'0 0.0
2017-Sep-16 21:00N 40°38' W 074°12'0 0.0
2017-Sep-16 20:30N 40°38' W 074°12'0 0.0
2017-Sep-16 20:00N 40°38' W 074°12'0 0.0
2017-Sep-16 19:30N 40°38' W 074°12'0 0.0
2017-Sep-16 19:00N 40°38' W 074°12'0 0.0
2017-Sep-16 18:27N 40°38' W 074°12'0 0.0
2017-Sep-16 18:00N 40°38' W 074°12'0 0.0
2017-Sep-16 17:30N 40°38' W 074°12'0 0.0
2017-Sep-16 17:00N 40°38' W 074°12'0 0.0
2017-Sep-16 16:30N 40°38' W 074°12'0 0.0
2017-Sep-16 15:48N 40°38' W 074°12'0 0.0
2017-Sep-16 15:27N 40°38' W 074°12'0 0.0
2017-Sep-16 15:00N 40°38' W 074°12'0 0.0
2017-Sep-16 14:27N 40°38' W 074°12'0 0.0
2017-Sep-16 13:57N 40°38' W 074°12'0 0.0
2017-Sep-16 13:30N 40°38' W 074°12'0 0.0
2017-Sep-16 12:57N 40°38' W 074°12'0 0.0
2017-Sep-16 12:30N 40°38' W 074°12'0 0.0
2017-Sep-16 12:00N 40°38' W 074°12'0 0.0
2017-Sep-16 11:30N 40°38' W 074°12'0 0.4
2017-Sep-16 11:00N 40°38' W 074°12'2 4.2
2017-Sep-16 10:30N 40°39' W 074°10'3 6.7
2017-Sep-16 10:00N 40°39' W 074°05'2 4.6
2017-Sep-16 09:30N 40°40' W 074°03'0 0.0
2017-Sep-16 09:00N 40°40' W 074°03'0 0.0
2017-Sep-16 08:30N 40°40' W 074°03'0 0.0
2017-Sep-16 08:00N 40°40' W 074°03'0 0.1
2017-Sep-16 07:30N 40°40' W 074°02'0 0.2
2017-Sep-16 07:00N 40°40' W 074°03'0 0.0
2017-Sep-16 06:30N 40°40' W 074°03'0 0.0
2017-Sep-16 06:00N 40°40' W 074°03'0 0.4
2017-Sep-16 05:30N 40°40' W 074°03'0 0.3
2017-Sep-16 05:00N 40°40' W 074°02'0 0.0
2017-Sep-16 04:30N 40°40' W 074°02'0 0.0
2017-Sep-16 04:00N 40°40' W 074°02'0 0.0
2017-Sep-16 03:30N 40°40' W 074°02'0 0.0
2017-Sep-16 03:00N 40°40' W 074°02'0 0.0
2017-Sep-16 02:30N 40°40' W 074°02'0 0.0
2017-Sep-16 02:00N 40°40' W 074°02'0 0.0
2017-Sep-16 01:30N 40°40' W 074°02'0 0.0
2017-Sep-16 01:00N 40°40' W 074°02'0 0.0
2017-Sep-16 00:30N 40°40' W 074°02'1 1.9
2017-Sep-16 00:00N 40°39' W 074°03'0 0.7
2017-Sep-15 23:30N 40°39' W 074°03'1 1.5
2017-Sep-15 23:00N 40°38' W 074°04'1 3.0
2017-Sep-15 22:31N 40°39' W 074°06'4 8.0
2017-Sep-15 22:00N 40°39' W 074°11'1 2.1
2017-Sep-15 21:25N 40°38' W 074°12'0 0.0
2017-Sep-15 20:58N 40°38' W 074°12'0 0.0
2017-Sep-15 20:28N 40°38' W 074°12'0 0.0
2017-Sep-15 19:49N 40°38' W 074°12'0 0.0
2017-Sep-15 19:28N 40°38' W 074°12'0 0.0
2017-Sep-15 18:58N 40°38' W 074°12'0 0.0
2017-Sep-15 18:28N 40°38' W 074°12'0 0.0
2017-Sep-15 17:58N 40°38' W 074°12'0 0.0
2017-Sep-15 17:22N 40°38' W 074°12'0 0.0
2017-Sep-15 16:58N 40°38' W 074°12'0 0.0
2017-Sep-15 16:25N 40°38' W 074°12'0 0.0
2017-Sep-15 15:58N 40°38' W 074°12'0 0.0
2017-Sep-15 15:22N 40°38' W 074°12'0 0.0
2017-Sep-15 14:58N 40°38' W 074°12'0 0.0
2017-Sep-15 14:13N 40°38' W 074°12'0 0.0
2017-Sep-15 13:58N 40°38' W 074°12'0 0.0
2017-Sep-15 13:28N 40°38' W 074°12'0 0.0
2017-Sep-15 12:58N 40°38' W 074°12'0 0.0
2017-Sep-15 12:28N 40°38' W 074°12'0 0.0
2017-Sep-15 11:58N 40°38' W 074°12'0 0.0
2017-Sep-15 11:22N 40°38' W 074°12'0 0.0
2017-Sep-15 10:58N 40°38' W 074°12'0 0.0
2017-Sep-15 10:28N 40°38' W 074°12'0 0.0
2017-Sep-15 09:58N 40°38' W 074°12'0 0.0
2017-Sep-15 09:28N 40°38' W 074°12'0 0.0
2017-Sep-15 08:58N 40°38' W 074°12'0 0.0
2017-Sep-15 08:28N 40°38' W 074°12'0 0.0
2017-Sep-15 07:58N 40°38' W 074°12'0 0.0
2017-Sep-15 07:28N 40°38' W 074°12'0 0.0
2017-Sep-15 06:58N 40°38' W 074°12'0 0.0
2017-Sep-15 06:28N 40°38' W 074°12'0 0.0
2017-Sep-15 05:58N 40°38' W 074°12'0 0.0
2017-Sep-15 05:30N 40°38' W 074°12'0 0.8
2017-Sep-15 05:00N 40°38' W 074°12'3 6.7
2017-Sep-15 04:30N 40°39' W 074°08'3 6.9
2017-Sep-15 04:00N 40°39' W 074°03'0 0.5
2017-Sep-15 03:29N 40°39' W 074°03'0 0.0
2017-Sep-15 02:59N 40°39' W 074°03'0 0.1
2017-Sep-15 02:31N 40°39' W 074°03'0 0.9
2017-Sep-15 02:01N 40°39' W 074°03'2 3.8
2017-Sep-15 01:29N 40°37' W 074°03'0 0.0
2017-Sep-15 00:59N 40°37' W 074°03'0 0.0
2017-Sep-15 00:29N 40°37' W 074°03'0 0.0
2017-Sep-14 23:59N 40°37' W 074°03'0 0.0
2017-Sep-14 23:29N 40°37' W 074°03'0 0.1
2017-Sep-14 22:59N 40°37' W 074°03'0 0.3
2017-Sep-14 22:29N 40°37' W 074°03'0 0.3
2017-Sep-14 21:59N 40°37' W 074°03'0 0.1
2017-Sep-14 21:29N 40°37' W 074°04'0 0.0
2017-Sep-14 20:59N 40°37' W 074°04'0 0.0
2017-Sep-14 20:29N 40°37' W 074°04'0 0.0
2017-Sep-14 19:59N 40°37' W 074°04'0 0.0
2017-Sep-14 19:29N 40°37' W 074°04'0 0.0
2017-Sep-14 18:59N 40°37' W 074°04'0 0.0
2017-Sep-14 18:29N 40°37' W 074°04'0 0.0
2017-Sep-14 17:59N 40°37' W 074°04'0 0.0
2017-Sep-14 17:29N 40°37' W 074°04'0 0.0
2017-Sep-14 16:59N 40°37' W 074°04'0 0.1
2017-Sep-14 16:29N 40°37' W 074°03'0 0.3
2017-Sep-14 15:56N 40°37' W 074°03'0 0.2
2017-Sep-14 15:30N 40°37' W 074°03'0 0.2
2017-Sep-14 15:00N 40°37' W 074°03'0 0.0
2017-Sep-14 14:30N 40°37' W 074°03'0 0.0
2017-Sep-14 14:00N 40°37' W 074°03'0 0.1
2017-Sep-14 13:30N 40°37' W 074°03'0 0.0
2017-Sep-14 13:00N 40°37' W 074°03'0 0.0
2017-Sep-14 12:30N 40°37' W 074°03'0 0.0
2017-Sep-14 12:00N 40°37' W 074°03'0 0.4
2017-Sep-14 11:30N 40°37' W 074°03'2 3.3
2017-Sep-14 11:00N 40°38' W 074°03'1 1.5
2017-Sep-14 10:28N 40°39' W 074°03'0 0.0
2017-Sep-14 09:58N 40°39' W 074°03'0 0.3
2017-Sep-14 09:28N 40°39' W 074°03'0 0.2
2017-Sep-14 08:58N 40°39' W 074°03'0 0.0
2017-Sep-14 08:28N 40°39' W 074°03'0 0.0
2017-Sep-14 07:58N 40°39' W 074°03'0 0.0
2017-Sep-14 07:28N 40°39' W 074°03'0 0.0
2017-Sep-14 06:58N 40°39' W 074°03'0 0.1
2017-Sep-14 06:28N 40°39' W 074°03'0 0.0
2017-Sep-14 05:58N 40°39' W 074°03'0 0.0
2017-Sep-14 05:28N 40°39' W 074°03'0 0.0
2017-Sep-14 04:58N 40°39' W 074°03'0 0.0
2017-Sep-14 04:28N 40°39' W 074°03'0 0.2
2017-Sep-14 03:58N 40°39' W 074°03'0 0.2
2017-Sep-14 03:28N 40°39' W 074°03'0 0.1
2017-Sep-14 02:58N 40°39' W 074°03'0 0.0
2017-Sep-14 02:28N 40°39' W 074°03'0 0.0
2017-Sep-14 01:58N 40°39' W 074°03'0 0.0
2017-Sep-14 01:28N 40°39' W 074°03'0 0.0
2017-Sep-14 00:58N 40°39' W 074°03'0 0.0
2017-Sep-14 00:28N 40°39' W 074°03'0 0.0
2017-Sep-13 23:58N 40°39' W 074°03'0 0.0
2017-Sep-13 23:28N 40°39' W 074°03'0 0.0
2017-Sep-13 22:58N 40°39' W 074°03'0 0.0
2017-Sep-13 22:28N 40°39' W 074°03'0 0.0
2017-Sep-13 21:58N 40°39' W 074°03'0 0.1
2017-Sep-13 21:28N 40°39' W 074°03'0 0.3
2017-Sep-13 20:58N 40°39' W 074°03'0 0.2
2017-Sep-13 20:28N 40°39' W 074°03'0 0.0
2017-Sep-13 19:58N 40°39' W 074°03'0 0.0
2017-Sep-13 19:28N 40°39' W 074°03'0 0.0
2017-Sep-13 18:58N 40°39' W 074°03'0 0.0
2017-Sep-13 18:28N 40°39' W 074°03'0 0.0
2017-Sep-13 17:58N 40°39' W 074°03'0 0.0
2017-Sep-13 17:28N 40°39' W 074°03'0 0.0
2017-Sep-13 16:58N 40°39' W 074°03'0 0.0
2017-Sep-13 16:28N 40°39' W 074°03'0 0.0
2017-Sep-13 15:58N 40°39' W 074°03'0 0.1
2017-Sep-13 15:28N 40°39' W 074°03'0 0.3
2017-Sep-13 14:58N 40°39' W 074°03'0 0.1
2017-Sep-13 14:28N 40°39' W 074°03'0 0.1
2017-Sep-13 13:58N 40°39' W 074°03'0 0.0
2017-Sep-13 13:28N 40°39' W 074°03'0 0.0
2017-Sep-13 12:58N 40°39' W 074°03'0 0.0
2017-Sep-13 12:28N 40°39' W 074°03'0 0.0
2017-Sep-13 11:58N 40°39' W 074°03'0 0.0
2017-Sep-13 11:28N 40°39' W 074°03'0 0.0
2017-Sep-13 10:58N 40°39' W 074°03'0 0.0
2017-Sep-13 10:28N 40°39' W 074°03'0 0.0
2017-Sep-13 09:58N 40°39' W 074°03'0 0.0
2017-Sep-13 09:28N 40°39' W 074°03'0 0.1
2017-Sep-13 08:58N 40°39' W 074°03'0 0.3
2017-Sep-13 08:28N 40°39' W 074°03'0 0.1
2017-Sep-13 07:58N 40°39' W 074°03'0 0.0
2017-Sep-13 07:28N 40°39' W 074°03'0 0.0
2017-Sep-13 06:58N 40°39' W 074°03'0 0.0
2017-Sep-13 06:28N 40°39' W 074°03'0 0.0
2017-Sep-13 05:58N 40°39' W 074°03'0 0.0
2017-Sep-13 05:28N 40°39' W 074°03'0 0.1
2017-Sep-13 04:58N 40°39' W 074°03'0 0.0
2017-Sep-13 04:28N 40°39' W 074°03'0 0.1
2017-Sep-13 03:58N 40°39' W 074°03'0 0.0
2017-Sep-13 03:28N 40°39' W 074°03'0 0.1
2017-Sep-13 02:58N 40°39' W 074°03'0 0.2
2017-Sep-13 02:28N 40°39' W 074°03'0 0.2
2017-Sep-13 01:58N 40°39' W 074°03'0 0.0
2017-Sep-13 01:28N 40°39' W 074°03'0 0.1
2017-Sep-13 00:58N 40°39' W 074°03'0 0.0
2017-Sep-13 00:28N 40°39' W 074°03'0 0.0
2017-Sep-12 23:58N 40°39' W 074°03'0 0.0
2017-Sep-12 23:28N 40°39' W 074°03'0 0.0
2017-Sep-12 22:58N 40°39' W 074°03'0 0.0
2017-Sep-12 22:28N 40°39' W 074°03'0 0.0
2017-Sep-12 21:58N 40°39' W 074°03'0 0.0
2017-Sep-12 21:31N 40°39' W 074°03'0 0.0
2017-Sep-12 20:58N 40°39' W 074°03'0 0.1
2017-Sep-12 20:28N 40°39' W 074°03'0 0.2
2017-Sep-12 19:58N 40°39' W 074°03'0 0.1
2017-Sep-12 19:28N 40°39' W 074°03'0 0.1
2017-Sep-12 19:01N 40°39' W 074°03'0 0.0
2017-Sep-12 18:31N 40°39' W 074°03'0 0.0
2017-Sep-12 17:58N 40°39' W 074°03'0 0.1
2017-Sep-12 17:28N 40°39' W 074°03'0 0.0
2017-Sep-12 16:58N 40°39' W 074°03'0 0.0
2017-Sep-12 16:28N 40°39' W 074°03'0 0.1
2017-Sep-12 15:58N 40°39' W 074°03'0 0.1
2017-Sep-12 15:28N 40°39' W 074°03'0 0.0
2017-Sep-12 14:58N 40°39' W 074°03'0 0.1
2017-Sep-12 14:28N 40°39' W 074°03'0 0.1
2017-Sep-12 13:58N 40°39' W 074°03'0 0.1
2017-Sep-12 13:27N 40°39' W 074°03'0 0.0
2017-Sep-12 13:00N 40°39' W 074°03'0 0.0
2017-Sep-12 12:28N 40°39' W 074°03'0 0.0
2017-Sep-12 12:00N 40°39' W 074°03'0 0.0
2017-Sep-12 11:30N 40°39' W 074°03'0 0.0
2017-Sep-12 11:01N 40°39' W 074°03'0 0.1
2017-Sep-12 10:27N 40°39' W 074°03'0 0.0
2017-Sep-12 09:58N 40°39' W 074°03'0 0.0
2017-Sep-12 09:28N 40°39' W 074°03'0 0.0
2017-Sep-12 09:00N 40°39' W 074°03'0 0.0
2017-Sep-12 08:30N 40°39' W 074°03'0 0.0
2017-Sep-12 08:01N 40°39' W 074°03'0 0.2
2017-Sep-12 07:30N 40°39' W 074°03'0 0.3
2017-Sep-12 06:58N 40°39' W 074°03'0 0.0
2017-Sep-12 06:27N 40°39' W 074°03'0 0.0
2017-Sep-12 06:01N 40°39' W 074°03'0 0.0
2017-Sep-12 05:27N 40°39' W 074°03'0 0.0
2017-Sep-12 05:00N 40°39' W 074°03'0 0.0
2017-Sep-12 04:28N 40°39' W 074°03'0 0.0
2017-Sep-12 04:00N 40°39' W 074°03'0 0.1
2017-Sep-12 03:30N 40°39' W 074°03'0 0.0
2017-Sep-12 03:01N 40°39' W 074°03'0 0.0
2017-Sep-12 02:28N 40°39' W 074°03'0 0.3
2017-Sep-12 01:57N 40°39' W 074°03'0 0.2
2017-Sep-12 01:30N 40°39' W 074°03'0 0.0
2017-Sep-12 01:01N 40°39' W 074°03'0 0.1
2017-Sep-12 00:31N 40°39' W 074°03'0 0.0
2017-Sep-11 23:58N 40°39' W 074°03'0 0.0
2017-Sep-11 23:27N 40°39' W 074°03'0 0.0
2017-Sep-11 23:01N 40°39' W 074°03'0 0.0
2017-Sep-11 22:31N 40°39' W 074°03'0 0.0
2017-Sep-11 22:00N 40°39' W 074°03'0 0.0
2017-Sep-11 21:31N 40°39' W 074°03'0 0.0
2017-Sep-11 21:00N 40°39' W 074°03'0 0.0
2017-Sep-11 20:30N 40°39' W 074°03'0 0.0
2017-Sep-11 20:00N 40°39' W 074°03'0 0.0
2017-Sep-11 19:30N 40°39' W 074°03'0 0.1
2017-Sep-11 19:00N 40°39' W 074°03'0 0.3
2017-Sep-11 18:30N 40°39' W 074°03'0 0.1
2017-Sep-11 18:00N 40°39' W 074°03'0 0.0
2017-Sep-11 17:30N 40°39' W 074°03'0 0.0
2017-Sep-11 16:55N 40°39' W 074°03'0 0.1
2017-Sep-11 16:31N 40°39' W 074°03'3 5.6
2017-Sep-11 16:00N 40°39' W 074°06'4 7.6
2017-Sep-11 15:30N 40°39' W 074°11'1 0.1
2017-Sep-11 05:34N 40°38' W 074°12'0 0.1
2017-Sep-11 05:28N 40°38' W 074°12'0 0.0
2017-Sep-11 04:58N 40°38' W 074°12'0 0.0
2017-Sep-11 04:28N 40°38' W 074°12'0 0.0
2017-Sep-11 03:58N 40°38' W 074°12'0 0.0
2017-Sep-11 03:28N 40°38' W 074°12'0 0.0
2017-Sep-11 02:58N 40°38' W 074°12'0 0.0
2017-Sep-11 02:28N 40°38' W 074°12'0 0.0
2017-Sep-11 01:58N 40°38' W 074°12'0 0.0
2017-Sep-11 01:28N 40°38' W 074°12'0 0.0
2017-Sep-11 00:58N 40°38' W 074°12'0 0.0
2017-Sep-11 00:28N 40°38' W 074°12'0 0.0
2017-Sep-10 23:58N 40°38' W 074°12'0 0.0
2017-Sep-10 23:28N 40°38' W 074°12'0 0.0
2017-Sep-10 22:58N 40°38' W 074°12'0 0.0
2017-Sep-10 22:28N 40°38' W 074°12'0 0.0
2017-Sep-10 22:00N 40°38' W 074°12'1 2.7
2017-Sep-10 21:30N 40°39' W 074°11'3 6.8
2017-Sep-10 21:00N 40°39' W 074°06'2 5.0
2017-Sep-10 20:30N 40°38' W 074°04'1 1.6
2017-Sep-10 20:00N 40°37' W 074°03'0 0.0
2017-Sep-10 19:29N 40°37' W 074°03'0 0.0
2017-Sep-10 18:56N 40°37' W 074°03'0 0.1
2017-Sep-10 18:29N 40°37' W 074°03'0 0.4
2017-Sep-10 17:50N 40°37' W 074°03'0 0.2
2017-Sep-10 17:26N 40°37' W 074°03'0 0.1
2017-Sep-10 16:59N 40°37' W 074°03'0 0.0
2017-Sep-10 16:29N 40°37' W 074°03'0 0.0
2017-Sep-10 15:59N 40°37' W 074°03'0 0.0
2017-Sep-10 15:29N 40°37' W 074°03'0 0.0
2017-Sep-10 14:56N 40°37' W 074°03'0 0.1
2017-Sep-10 13:59N 40°37' W 074°03'0 0.1
2017-Sep-10 13:29N 40°37' W 074°03'0 0.0
2017-Sep-10 12:59N 40°37' W 074°03'0 0.3
2017-Sep-10 12:26N 40°37' W 074°03'0 0.3
2017-Sep-10 11:59N 40°37' W 074°03'0 0.1
2017-Sep-10 11:29N 40°37' W 074°03'0 0.1
2017-Sep-10 10:59N 40°37' W 074°03'0 0.0
2017-Sep-10 10:29N 40°37' W 074°03'0 0.0
2017-Sep-10 09:59N 40°37' W 074°03'0 0.0
2017-Sep-10 09:29N 40°37' W 074°03'0 0.0
2017-Sep-10 08:56N 40°37' W 074°03'0 0.0
2017-Sep-10 08:29N 40°37' W 074°03'0 0.0
2017-Sep-10 07:59N 40°37' W 074°03'0 0.0
2017-Sep-10 07:29N 40°37' W 074°03'0 0.0
2017-Sep-10 07:00N 40°37' W 074°03'0 0.1
2017-Sep-10 06:30N 40°37' W 074°03'1 1.4
2017-Sep-10 06:00N 40°36' W 074°03'1 1.4
2017-Sep-10 05:30N 40°36' W 074°02'0 0.6
2017-Sep-10 05:00N 40°36' W 074°02'1 1.1
2017-Sep-10 04:30N 40°35' W 074°01'0 0.0
2017-Sep-10 03:55N 40°35' W 074°01'0 0.0
2017-Sep-10 03:28N 40°35' W 074°01'0 0.1
2017-Sep-10 02:58N 40°35' W 074°01'0 0.0
2017-Sep-10 02:28N 40°35' W 074°01'0 0.0
2017-Sep-10 01:58N 40°35' W 074°01'0 0.0
2017-Sep-10 01:28N 40°35' W 074°01'0 0.0
2017-Sep-10 00:58N 40°35' W 074°01'0 0.0
2017-Sep-10 00:28N 40°35' W 074°01'0 0.0
2017-Sep-09 23:58N 40°35' W 074°01'0 0.0
2017-Sep-09 23:28N 40°35' W 074°01'0 0.0
2017-Sep-09 22:58N 40°35' W 074°01'0 0.0
2017-Sep-09 22:29N 40°35' W 074°01'0 0.0
2017-Sep-09 21:58N 40°35' W 074°01'0 0.0
2017-Sep-09 21:28N 40°35' W 074°01'0 0.0
2017-Sep-09 20:58N 40°35' W 074°01'0 0.0
2017-Sep-09 20:28N 40°35' W 074°01'0 0.0
2017-Sep-09 19:58N 40°35' W 074°01'0 0.0
2017-Sep-09 19:28N 40°35' W 074°01'0 0.0
2017-Sep-09 18:58N 40°35' W 074°01'0 0.0
2017-Sep-09 18:25N 40°35' W 074°01'0 0.0
2017-Sep-09 17:58N 40°35' W 074°01'0 0.0
2017-Sep-09 17:28N 40°35' W 074°01'0 0.1
2017-Sep-09 16:58N 40°35' W 074°01'0 0.0
2017-Sep-09 16:25N 40°35' W 074°01'0 0.0
2017-Sep-09 15:58N 40°35' W 074°01'0 0.0
2017-Sep-09 15:28N 40°35' W 074°01'0 0.0
2017-Sep-09 14:58N 40°35' W 074°01'0 0.0
2017-Sep-09 14:25N 40°35' W 074°01'0 0.1
2017-Sep-09 13:58N 40°35' W 074°01'0 0.1
2017-Sep-09 13:28N 40°35' W 074°01'0 0.0
2017-Sep-09 12:58N 40°35' W 074°01'0 0.1
2017-Sep-09 12:28N 40°35' W 074°01'0 0.0
2017-Sep-09 11:55N 40°35' W 074°01'0 0.0
2017-Sep-09 11:28N 40°35' W 074°01'0 0.0
2017-Sep-09 10:58N 40°35' W 074°01'0 0.0
2017-Sep-09 10:28N 40°35' W 074°01'0 0.0
2017-Sep-09 09:58N 40°35' W 074°01'0 0.0
2017-Sep-09 09:28N 40°35' W 074°01'0 0.0
2017-Sep-09 08:58N 40°35' W 074°01'0 0.0
2017-Sep-09 08:28N 40°35' W 074°01'0 0.0
2017-Sep-09 07:58N 40°35' W 074°01'0 0.0
2017-Sep-09 07:28N 40°35' W 074°01'0 0.0
2017-Sep-09 06:58N 40°35' W 074°01'0 0.0
2017-Sep-09 06:28N 40°35' W 074°01'0 0.0
2017-Sep-09 05:58N 40°35' W 074°01'0 0.0
2017-Sep-09 05:28N 40°35' W 074°01'0 0.1
2017-Sep-09 04:58N 40°35' W 074°01'0 0.0
2017-Sep-09 04:28N 40°35' W 074°01'0 0.0
2017-Sep-09 03:58N 40°35' W 074°01'0 0.0
2017-Sep-09 03:28N 40°35' W 074°01'0 0.0
2017-Sep-09 02:58N 40°35' W 074°01'0 0.1
2017-Sep-09 02:28N 40°35' W 074°01'0 0.1
2017-Sep-09 01:55N 40°35' W 074°01'0 0.1
2017-Sep-09 01:28N 40°35' W 074°01'0 0.1
2017-Sep-09 00:58N 40°35' W 074°01'0 0.0
2017-Sep-09 00:28N 40°35' W 074°01'0 0.1
2017-Sep-08 23:58N 40°35' W 074°01'0 0.0
2017-Sep-08 23:28N 40°35' W 074°01'0 0.1
2017-Sep-08 22:58N 40°35' W 074°01'0 0.0
2017-Sep-08 22:28N 40°35' W 074°01'0 0.0
2017-Sep-08 21:58N 40°35' W 074°01'0 0.0
2017-Sep-08 21:28N 40°35' W 074°01'0 0.0
2017-Sep-08 20:58N 40°35' W 074°01'0 0.0
2017-Sep-08 20:25N 40°35' W 074°01'  
Track history (hours):
 
Tides and Currents Weather Stations Pressure Air Temp Water Temp Dewpoint Dewpoint Depression Visibility Wind Speed Wind Dir Waves Ship Positions

Barney Turecamo

Owner: Moran Towing Corporation, New Canaan, CT. More information available from US FCC via Universal Licensing System and Coast Guard Vessel Documentation Center.

Last reported at 2017-Sep-18 20:09 UTC. Time now 2017-Sep-19 22:19 UTC.
Position N 40°55' W 073°55'.

Length 156 m; draft 7 m.

Type: Tug. MMSI: 367061610.

Date/timePositionNaut miles runAvg speedWind from/ knotsBaromVisibWave heightAir tempDewpointWater temp
2017-Sep-18 20:09N 40°55' W 073°55'1 7.7
2017-Sep-18 19:58N 40°54' W 073°55'3 7.2
2017-Sep-18 19:30N 40°51' W 073°57'3 6.8
2017-Sep-18 18:59N 40°48' W 073°59'3 6.4
2017-Sep-18 18:30N 40°45' W 074°01'3 7.0
2017-Sep-18 18:00N 40°42' W 074°02'3 6.5
2017-Sep-18 17:30N 40°39' W 074°04'1 1.3
2017-Sep-18 17:00N 40°39' W 074°05'0 0.0
2017-Sep-18 16:30N 40°39' W 074°05'0 0.0
2017-Sep-18 16:00N 40°39' W 074°05'2 4.4
2017-Sep-18 15:30N 40°38' W 074°08'0 0.0
2017-Sep-18 15:00N 40°38' W 074°08'0 0.0
2017-Sep-18 14:30N 40°38' W 074°08'0 0.0
2017-Sep-18 14:00N 40°38' W 074°08'0 0.0
2017-Sep-18 13:30N 40°38' W 074°08'0 0.0
2017-Sep-18 13:00N 40°38' W 074°08'0 0.0
2017-Sep-18 12:30N 40°38' W 074°08'0 0.0
2017-Sep-18 12:00N 40°38' W 074°08'0 0.0
2017-Sep-18 11:30N 40°38' W 074°08'0 0.0
2017-Sep-18 11:00N 40°38' W 074°08'2 4.4
2017-Sep-18 10:30N 40°39' W 074°05'0 0.0
2017-Sep-18 10:00N 40°39' W 074°05'0 0.0
2017-Sep-18 09:30N 40°39' W 074°05'0 0.0
2017-Sep-18 09:00N 40°39' W 074°05'0 0.0
2017-Sep-18 08:30N 40°39' W 074°05'0 0.0
2017-Sep-18 08:00N 40°39' W 074°05'0 0.0
2017-Sep-18 07:30N 40°39' W 074°05'0 0.0
2017-Sep-18 07:00N 40°39' W 074°05'0 0.0
2017-Sep-18 06:30N 40°39' W 074°05'0 0.0
2017-Sep-18 06:00N 40°39' W 074°05'0 0.0
2017-Sep-18 05:30N 40°39' W 074°05'0 0.2
2017-Sep-18 05:01N 40°39' W 074°05'2 5.0
2017-Sep-18 04:30N 40°37' W 074°03'1 1.2
2017-Sep-18 04:00N 40°37' W 074°03'2 1.8
2017-Sep-18 03:00N 40°35' W 074°01'0 0.0
2017-Sep-18 02:30N 40°35' W 074°01'0 0.0
2017-Sep-18 02:00N 40°35' W 074°01'0 0.1
2017-Sep-18 01:24N 40°35' W 074°01'0 0.0
2017-Sep-18 00:51N 40°35' W 074°01'0 0.0
2017-Sep-18 00:30N 40°35' W 074°01'0 0.1
2017-Sep-18 00:00N 40°35' W 074°01'0 0.1
2017-Sep-17 23:30N 40°36' W 074°01'0 0.0
2017-Sep-17 23:00N 40°36' W 074°01'0 0.0
2017-Sep-17 22:30N 40°36' W 074°01'0 0.1
2017-Sep-17 22:00N 40°36' W 074°01'0 0.1
2017-Sep-17 21:30N 40°36' W 074°01'0 0.0
2017-Sep-17 21:00N 40°36' W 074°01'0 0.0
2017-Sep-17 20:30N 40°36' W 074°01'0 0.1
2017-Sep-17 20:00N 40°36' W 074°01'0 0.6
2017-Sep-17 19:31N 40°36' W 074°02'4 7.2
2017-Sep-17 19:00N 40°39' W 074°04'3 6.8
2017-Sep-17 18:30N 40°38' W 074°09'3 5.9
2017-Sep-17 18:01N 40°38' W 074°12'0 0.1
2017-Sep-17 17:30N 40°38' W 074°12'0 0.0
2017-Sep-17 16:54N 40°38' W 074°12'0 0.0
2017-Sep-17 16:27N 40°38' W 074°12'0 0.0
2017-Sep-17 16:00N 40°38' W 074°12'0 0.0
2017-Sep-17 15:27N 40°38' W 074°12'0 0.0
2017-Sep-17 14:57N 40°38' W 074°12'0 0.0
2017-Sep-17 14:30N 40°38' W 074°12'0 0.0
2017-Sep-17 14:00N 40°38' W 074°12'0 0.0
2017-Sep-17 13:27N 40°38' W 074°12'0 0.0
2017-Sep-17 13:00N 40°38' W 074°12'0 0.0
2017-Sep-17 12:09N 40°38' W 074°12'0 0.0
2017-Sep-17 11:57N 40°38' W 074°12'0 0.0
2017-Sep-17 11:30N 40°38' W 074°12'0 0.0
2017-Sep-17 10:57N 40°38' W 074°12'0 0.0
2017-Sep-17 10:27N 40°38' W 074°12'0 0.0
2017-Sep-17 10:00N 40°38' W 074°12'0 0.0
2017-Sep-17 09:30N 40°38' W 074°12'0 0.0
2017-Sep-17 08:57N 40°38' W 074°12'0 0.0
2017-Sep-17 08:30N 40°38' W 074°12'0 0.0
2017-Sep-17 07:57N 40°38' W 074°12'0 0.0
2017-Sep-17 07:30N 40°38' W 074°12'0 0.0
2017-Sep-17 07:00N 40°38' W 074°12'0 0.0
2017-Sep-17 06:30N 40°38' W 074°12'0 0.0
2017-Sep-17 06:00N 40°38' W 074°12'0 0.0
2017-Sep-17 05:28N 40°38' W 074°12'0 0.0
2017-Sep-17 04:57N 40°38' W 074°12'0 0.0
2017-Sep-17 04:27N 40°38' W 074°12'0 0.0
2017-Sep-17 03:57N 40°38' W 074°12'0 0.0
2017-Sep-17 03:30N 40°38' W 074°12'0 0.0
2017-Sep-17 03:00N 40°38' W 074°12'0 0.0
2017-Sep-17 02:30N 40°38' W 074°12'0 0.0
2017-Sep-17 02:00N 40°38' W 074°12'0 0.0
2017-Sep-17 01:30N 40°38' W 074°12'0 0.0
2017-Sep-17 01:00N 40°38' W 074°12'0 0.0
2017-Sep-17 00:27N 40°38' W 074°12'0 0.0
2017-Sep-17 00:00N 40°38' W 074°12'0 0.0
2017-Sep-16 23:30N 40°38' W 074°12'0 0.0
2017-Sep-16 23:00N 40°38' W 074°12'0 0.0
2017-Sep-16 22:27N 40°38' W 074°12'0 0.0
2017-Sep-16 21:57N 40°38' W 074°12'0 0.0
2017-Sep-16 21:27N 40°38' W 074°12'0 0.0
2017-Sep-16 21:00N 40°38' W 074°12'0 0.0
2017-Sep-16 20:30N 40°38' W 074°12'0 0.0
2017-Sep-16 20:00N 40°38' W 074°12'0 0.0
2017-Sep-16 19:30N 40°38' W 074°12'0 0.0
2017-Sep-16 19:00N 40°38' W 074°12'0 0.0
2017-Sep-16 18:27N 40°38' W 074°12'0 0.0
2017-Sep-16 18:00N 40°38' W 074°12'0 0.0
2017-Sep-16 17:30N 40°38' W 074°12'0 0.0
2017-Sep-16 17:00N 40°38' W 074°12'0 0.0
2017-Sep-16 16:30N 40°38' W 074°12'0 0.0
2017-Sep-16 15:48N 40°38' W 074°12'0 0.0
2017-Sep-16 15:27N 40°38' W 074°12'0 0.0
2017-Sep-16 15:00N 40°38' W 074°12'0 0.0
2017-Sep-16 14:27N 40°38' W 074°12'0 0.0
2017-Sep-16 13:57N 40°38' W 074°12'0 0.0
2017-Sep-16 13:30N 40°38' W 074°12'0 0.0
2017-Sep-16 12:57N 40°38' W 074°12'0 0.0
2017-Sep-16 12:30N 40°38' W 074°12'0 0.0
2017-Sep-16 12:00N 40°38' W 074°12'0 0.0
2017-Sep-16 11:30N 40°38' W 074°12'0 0.4
2017-Sep-16 11:00N 40°38' W 074°12'2 4.2
2017-Sep-16 10:30N 40°39' W 074°10'3 6.7
2017-Sep-16 10:00N 40°39' W 074°05'2 4.6
2017-Sep-16 09:30N 40°40' W 074°03'0 0.0
2017-Sep-16 09:00N 40°40' W 074°03'0 0.0
2017-Sep-16 08:30N 40°40' W 074°03'0 0.0
2017-Sep-16 08:00N 40°40' W 074°03'0 0.1
2017-Sep-16 07:30N 40°40' W 074°02'0 0.2
2017-Sep-16 07:00N 40°40' W 074°03'0 0.0
2017-Sep-16 06:30N 40°40' W 074°03'0 0.0
2017-Sep-16 06:00N 40°40' W 074°03'0 0.4
2017-Sep-16 05:30N 40°40' W 074°03'0 0.3
2017-Sep-16 05:00N 40°40' W 074°02'0 0.0
2017-Sep-16 04:30N 40°40' W 074°02'0 0.0
2017-Sep-16 04:00N 40°40' W 074°02'0 0.0
2017-Sep-16 03:30N 40°40' W 074°02'0 0.0
2017-Sep-16 03:00N 40°40' W 074°02'0 0.0
2017-Sep-16 02:30N 40°40' W 074°02'0 0.0
2017-Sep-16 02:00N 40°40' W 074°02'0 0.0
2017-Sep-16 01:30N 40°40' W 074°02'0 0.0
2017-Sep-16 01:00N 40°40' W 074°02'0 0.0
2017-Sep-16 00:30N 40°40' W 074°02'1 1.9
2017-Sep-16 00:00N 40°39' W 074°03'0 0.7
2017-Sep-15 23:30N 40°39' W 074°03'1 1.5
2017-Sep-15 23:00N 40°38' W 074°04'1 3.0
2017-Sep-15 22:31N 40°39' W 074°06'4 8.0
2017-Sep-15 22:00N 40°39' W 074°11'1 2.1
2017-Sep-15 21:25N 40°38' W 074°12'0 0.0
2017-Sep-15 20:58N 40°38' W 074°12'0 0.0
2017-Sep-15 20:28N 40°38' W 074°12'0 0.0
2017-Sep-15 19:49N 40°38' W 074°12'0 0.0
2017-Sep-15 19:28N 40°38' W 074°12'0 0.0
2017-Sep-15 18:58N 40°38' W 074°12'0 0.0
2017-Sep-15 18:28N 40°38' W 074°12'0 0.0
2017-Sep-15 17:58N 40°38' W 074°12'0 0.0
2017-Sep-15 17:22N 40°38' W 074°12'0 0.0
2017-Sep-15 16:58N 40°38' W 074°12'0 0.0
2017-Sep-15 16:25N 40°38' W 074°12'0 0.0
2017-Sep-15 15:58N 40°38' W 074°12'0 0.0
2017-Sep-15 15:22N 40°38' W 074°12'0 0.0
2017-Sep-15 14:58N 40°38' W 074°12'0 0.0
2017-Sep-15 14:13N 40°38' W 074°12'0 0.0
2017-Sep-15 13:58N 40°38' W 074°12'0 0.0
2017-Sep-15 13:28N 40°38' W 074°12'0 0.0
2017-Sep-15 12:58N 40°38' W 074°12'0 0.0
2017-Sep-15 12:28N 40°38' W 074°12'0 0.0
2017-Sep-15 11:58N 40°38' W 074°12'0 0.0
2017-Sep-15 11:22N 40°38' W 074°12'0 0.0
2017-Sep-15 10:58N 40°38' W 074°12'0 0.0
2017-Sep-15 10:28N 40°38' W 074°12'0 0.0
2017-Sep-15 09:58N 40°38' W 074°12'0 0.0
2017-Sep-15 09:28N 40°38' W 074°12'0 0.0
2017-Sep-15 08:58N 40°38' W 074°12'0 0.0
2017-Sep-15 08:28N 40°38' W 074°12'0 0.0
2017-Sep-15 07:58N 40°38' W 074°12'0 0.0
2017-Sep-15 07:28N 40°38' W 074°12'0 0.0
2017-Sep-15 06:58N 40°38' W 074°12'0 0.0
2017-Sep-15 06:28N 40°38' W 074°12'0 0.0
2017-Sep-15 05:58N 40°38' W 074°12'0 0.0
2017-Sep-15 05:30N 40°38' W 074°12'0 0.8
2017-Sep-15 05:00N 40°38' W 074°12'3 6.7
2017-Sep-15 04:30N 40°39' W 074°08'3 6.9
2017-Sep-15 04:00N 40°39' W 074°03'0 0.5
2017-Sep-15 03:29N 40°39' W 074°03'0 0.0
2017-Sep-15 02:59N 40°39' W 074°03'0 0.1
2017-Sep-15 02:31N 40°39' W 074°03'0 0.9
2017-Sep-15 02:01N 40°39' W 074°03'2 3.8
2017-Sep-15 01:29N 40°37' W 074°03'0 0.0
2017-Sep-15 00:59N 40°37' W 074°03'0 0.0
2017-Sep-15 00:29N 40°37' W 074°03'0 0.0
2017-Sep-14 23:59N 40°37' W 074°03'0 0.0
2017-Sep-14 23:29N 40°37' W 074°03'0 0.1
2017-Sep-14 22:59N 40°37' W 074°03'0 0.3
2017-Sep-14 22:29N 40°37' W 074°03'0 0.3
2017-Sep-14 21:59N 40°37' W 074°03'0 0.1
2017-Sep-14 21:29N 40°37' W 074°04'0 0.0
2017-Sep-14 20:59N 40°37' W 074°04'0 0.0
2017-Sep-14 20:29N 40°37' W 074°04'0 0.0
2017-Sep-14 19:59N 40°37' W 074°04'0 0.0
2017-Sep-14 19:29N 40°37' W 074°04'0 0.0
2017-Sep-14 18:59N 40°37' W 074°04'0 0.0
2017-Sep-14 18:29N 40°37' W 074°04'0 0.0
2017-Sep-14 17:59N 40°37' W 074°04'0 0.0
2017-Sep-14 17:29N 40°37' W 074°04'0 0.0
2017-Sep-14 16:59N 40°37' W 074°04'0 0.1
2017-Sep-14 16:29N 40°37' W 074°03'0 0.3
2017-Sep-14 15:56N 40°37' W 074°03'0 0.2
2017-Sep-14 15:30N 40°37' W 074°03'0 0.2
2017-Sep-14 15:00N 40°37' W 074°03'0 0.0
2017-Sep-14 14:30N 40°37' W 074°03'0 0.0
2017-Sep-14 14:00N 40°37' W 074°03'0 0.1
2017-Sep-14 13:30N 40°37' W 074°03'0 0.0
2017-Sep-14 13:00N 40°37' W 074°03'0 0.0
2017-Sep-14 12:30N 40°37' W 074°03'0 0.0
2017-Sep-14 12:00N 40°37' W 074°03'0 0.4
2017-Sep-14 11:30N 40°37' W 074°03'2 3.3
2017-Sep-14 11:00N 40°38' W 074°03'1 1.5
2017-Sep-14 10:28N 40°39' W 074°03'0 0.0
2017-Sep-14 09:58N 40°39' W 074°03'0 0.3
2017-Sep-14 09:28N 40°39' W 074°03'0 0.2
2017-Sep-14 08:58N 40°39' W 074°03'0 0.0
2017-Sep-14 08:28N 40°39' W 074°03'0 0.0
2017-Sep-14 07:58N 40°39' W 074°03'0 0.0
2017-Sep-14 07:28N 40°39' W 074°03'0 0.0
2017-Sep-14 06:58N 40°39' W 074°03'0 0.1
2017-Sep-14 06:28N 40°39' W 074°03'0 0.0
2017-Sep-14 05:58N 40°39' W 074°03'0 0.0
2017-Sep-14 05:28N 40°39' W 074°03'0 0.0
2017-Sep-14 04:58N 40°39' W 074°03'0 0.0
2017-Sep-14 04:28N 40°39' W 074°03'0 0.2
2017-Sep-14 03:58N 40°39' W 074°03'0 0.2
2017-Sep-14 03:28N 40°39' W 074°03'0 0.1
2017-Sep-14 02:58N 40°39' W 074°03'0 0.0
2017-Sep-14 02:28N 40°39' W 074°03'0 0.0
2017-Sep-14 01:58N 40°39' W 074°03'0 0.0
2017-Sep-14 01:28N 40°39' W 074°03'0 0.0
2017-Sep-14 00:58N 40°39' W 074°03'0 0.0
2017-Sep-14 00:28N 40°39' W 074°03'0 0.0
2017-Sep-13 23:58N 40°39' W 074°03'0 0.0
2017-Sep-13 23:28N 40°39' W 074°03'0 0.0
2017-Sep-13 22:58N 40°39' W 074°03'0 0.0
2017-Sep-13 22:28N 40°39' W 074°03'0 0.0
2017-Sep-13 21:58N 40°39' W 074°03'0 0.1
2017-Sep-13 21:28N 40°39' W 074°03'0 0.3
2017-Sep-13 20:58N 40°39' W 074°03'0 0.2
2017-Sep-13 20:28N 40°39' W 074°03'0 0.0
2017-Sep-13 19:58N 40°39' W 074°03'0 0.0
2017-Sep-13 19:28N 40°39' W 074°03'0 0.0
2017-Sep-13 18:58N 40°39' W 074°03'0 0.0
2017-Sep-13 18:28N 40°39' W 074°03'0 0.0
2017-Sep-13 17:58N 40°39' W 074°03'0 0.0
2017-Sep-13 17:28N 40°39' W 074°03'0 0.0
2017-Sep-13 16:58N 40°39' W 074°03'0 0.0
2017-Sep-13 16:28N 40°39' W 074°03'0 0.0
2017-Sep-13 15:58N 40°39' W 074°03'0 0.1
2017-Sep-13 15:28N 40°39' W 074°03'0 0.3
2017-Sep-13 14:58N 40°39' W 074°03'0 0.1
2017-Sep-13 14:28N 40°39' W 074°03'0 0.1
2017-Sep-13 13:58N 40°39' W 074°03'0 0.0
2017-Sep-13 13:28N 40°39' W 074°03'0 0.0
2017-Sep-13 12:58N 40°39' W 074°03'0 0.0
2017-Sep-13 12:28N 40°39' W 074°03'0 0.0
2017-Sep-13 11:58N 40°39' W 074°03'0 0.0
2017-Sep-13 11:28N 40°39' W 074°03'0 0.0
2017-Sep-13 10:58N 40°39' W 074°03'0 0.0
2017-Sep-13 10:28N 40°39' W 074°03'0 0.0
2017-Sep-13 09:58N 40°39' W 074°03'0 0.0
2017-Sep-13 09:28N 40°39' W 074°03'0 0.1
2017-Sep-13 08:58N 40°39' W 074°03'0 0.3
2017-Sep-13 08:28N 40°39' W 074°03'0 0.1
2017-Sep-13 07:58N 40°39' W 074°03'0 0.0
2017-Sep-13 07:28N 40°39' W 074°03'0 0.0
2017-Sep-13 06:58N 40°39' W 074°03'0 0.0
2017-Sep-13 06:28N 40°39' W 074°03'0 0.0
2017-Sep-13 05:58N 40°39' W 074°03'0 0.0
2017-Sep-13 05:28N 40°39' W 074°03'0 0.1
2017-Sep-13 04:58N 40°39' W 074°03'0 0.0
2017-Sep-13 04:28N 40°39' W 074°03'0 0.1
2017-Sep-13 03:58N 40°39' W 074°03'0 0.0
2017-Sep-13 03:28N 40°39' W 074°03'0 0.1
2017-Sep-13 02:58N 40°39' W 074°03'0 0.2
2017-Sep-13 02:28N 40°39' W 074°03'0 0.2
2017-Sep-13 01:58N 40°39' W 074°03'0 0.0
2017-Sep-13 01:28N 40°39' W 074°03'0 0.1
2017-Sep-13 00:58N 40°39' W 074°03'0 0.0
2017-Sep-13 00:28N 40°39' W 074°03'0 0.0
2017-Sep-12 23:58N 40°39' W 074°03'0 0.0
2017-Sep-12 23:28N 40°39' W 074°03'0 0.0
2017-Sep-12 22:58N 40°39' W 074°03'0 0.0
2017-Sep-12 22:28N 40°39' W 074°03'0 0.0
2017-Sep-12 21:58N 40°39' W 074°03'0 0.0
2017-Sep-12 21:31N 40°39' W 074°03'0 0.0
2017-Sep-12 20:58N 40°39' W 074°03'0 0.1
2017-Sep-12 20:28N 40°39' W 074°03'0 0.2
2017-Sep-12 19:58N 40°39' W 074°03'0 0.1
2017-Sep-12 19:28N 40°39' W 074°03'0 0.1
2017-Sep-12 19:01N 40°39' W 074°03'0 0.0
2017-Sep-12 18:31N 40°39' W 074°03'0 0.0
2017-Sep-12 17:58N 40°39' W 074°03'0 0.1
2017-Sep-12 17:28N 40°39' W 074°03'0 0.0
2017-Sep-12 16:58N 40°39' W 074°03'0 0.0
2017-Sep-12 16:28N 40°39' W 074°03'0 0.1
2017-Sep-12 15:58N 40°39' W 074°03'0 0.1
2017-Sep-12 15:28N 40°39' W 074°03'0 0.0
2017-Sep-12 14:58N 40°39' W 074°03'0 0.1
2017-Sep-12 14:28N 40°39' W 074°03'0 0.1
2017-Sep-12 13:58N 40°39' W 074°03'0 0.1
2017-Sep-12 13:27N 40°39' W 074°03'0 0.0
2017-Sep-12 13:00N 40°39' W 074°03'0 0.0
2017-Sep-12 12:28N 40°39' W 074°03'0 0.0
2017-Sep-12 12:00N 40°39' W 074°03'0 0.0
2017-Sep-12 11:30N 40°39' W 074°03'0 0.0
2017-Sep-12 11:01N 40°39' W 074°03'0 0.1
2017-Sep-12 10:27N 40°39' W 074°03'0 0.0
2017-Sep-12 09:58N 40°39' W 074°03'0 0.0
2017-Sep-12 09:28N 40°39' W 074°03'0 0.0
2017-Sep-12 09:00N 40°39' W 074°03'0 0.0
2017-Sep-12 08:30N 40°39' W 074°03'0 0.0
2017-Sep-12 08:01N 40°39' W 074°03'0 0.2
2017-Sep-12 07:30N 40°39' W 074°03'0 0.3
2017-Sep-12 06:58N 40°39' W 074°03'0 0.0
2017-Sep-12 06:27N 40°39' W 074°03'0 0.0
2017-Sep-12 06:01N 40°39' W 074°03'0 0.0
2017-Sep-12 05:27N 40°39' W 074°03'0 0.0
2017-Sep-12 05:00N 40°39' W 074°03'0 0.0
2017-Sep-12 04:28N 40°39' W 074°03'0 0.0
2017-Sep-12 04:00N 40°39' W 074°03'0 0.1
2017-Sep-12 03:30N 40°39' W 074°03'0 0.0
2017-Sep-12 03:01N 40°39' W 074°03'0 0.0
2017-Sep-12 02:28N 40°39' W 074°03'0 0.3
2017-Sep-12 01:57N 40°39' W 074°03'0 0.2
2017-Sep-12 01:30N 40°39' W 074°03'0 0.0
2017-Sep-12 01:01N 40°39' W 074°03'0 0.1
2017-Sep-12 00:31N 40°39' W 074°03'0 0.0
2017-Sep-11 23:58N 40°39' W 074°03'0 0.0
2017-Sep-11 23:27N 40°39' W 074°03'0 0.0
2017-Sep-11 23:01N 40°39' W 074°03'0 0.0
2017-Sep-11 22:31N 40°39' W 074°03'0 0.0
2017-Sep-11 22:00N 40°39' W 074°03'0 0.0
2017-Sep-11 21:31N 40°39' W 074°03'0 0.0
2017-Sep-11 21:00N 40°39' W 074°03'0 0.0
2017-Sep-11 20:30N 40°39' W 074°03'0 0.0
2017-Sep-11 20:00N 40°39' W 074°03'0 0.0
2017-Sep-11 19:30N 40°39' W 074°03'0 0.1
2017-Sep-11 19:00N 40°39' W 074°03'0 0.3
2017-Sep-11 18:30N 40°39' W 074°03'0 0.1
2017-Sep-11 18:00N 40°39' W 074°03'0 0.0
2017-Sep-11 17:30N 40°39' W 074°03'0 0.0
2017-Sep-11 16:55N 40°39' W 074°03'0 0.1
2017-Sep-11 16:31N 40°39' W 074°03'3 5.6
2017-Sep-11 16:00N 40°39' W 074°06'4 7.6
2017-Sep-11 15:30N 40°39' W 074°11'1 0.1
2017-Sep-11 05:34N 40°38' W 074°12'0 0.1
2017-Sep-11 05:28N 40°38' W 074°12'0 0.0
2017-Sep-11 04:58N 40°38' W 074°12'0 0.0
2017-Sep-11 04:28N 40°38' W 074°12'0 0.0
2017-Sep-11 03:58N 40°38' W 074°12'0 0.0
2017-Sep-11 03:28N 40°38' W 074°12'0 0.0
2017-Sep-11 02:58N 40°38' W 074°12'0 0.0
2017-Sep-11 02:28N 40°38' W 074°12'0 0.0
2017-Sep-11 01:58N 40°38' W 074°12'0 0.0
2017-Sep-11 01:28N 40°38' W 074°12'0 0.0
2017-Sep-11 00:58N 40°38' W 074°12'0 0.0
2017-Sep-11 00:28N 40°38' W 074°12'0 0.0
2017-Sep-10 23:58N 40°38' W 074°12'0 0.0
2017-Sep-10 23:28N 40°38' W 074°12'0 0.0
2017-Sep-10 22:58N 40°38' W 074°12'0 0.0
2017-Sep-10 22:28N 40°38' W 074°12'0 0.0
2017-Sep-10 22:00N 40°38' W 074°12'1 2.7
2017-Sep-10 21:30N 40°39' W 074°11'3 6.8
2017-Sep-10 21:00N 40°39' W 074°06'2 5.0
2017-Sep-10 20:30N 40°38' W 074°04'1 1.6
2017-Sep-10 20:00N 40°37' W 074°03'0 0.0
2017-Sep-10 19:29N 40°37' W 074°03'0 0.0
2017-Sep-10 18:56N 40°37' W 074°03'0 0.1
2017-Sep-10 18:29N 40°37' W 074°03'0 0.4
2017-Sep-10 17:50N 40°37' W 074°03'0 0.2
2017-Sep-10 17:26N 40°37' W 074°03'0 0.1
2017-Sep-10 16:59N 40°37' W 074°03'0 0.0
2017-Sep-10 16:29N 40°37' W 074°03'0 0.0
2017-Sep-10 15:59N 40°37' W 074°03'0 0.0
2017-Sep-10 15:29N 40°37' W 074°03'0 0.0
2017-Sep-10 14:56N 40°37' W 074°03'0 0.1
2017-Sep-10 13:59N 40°37' W 074°03'0 0.1
2017-Sep-10 13:29N 40°37' W 074°03'0 0.0
2017-Sep-10 12:59N 40°37' W 074°03'0 0.3
2017-Sep-10 12:26N 40°37' W 074°03'0 0.3
2017-Sep-10 11:59N 40°37' W 074°03'0 0.1
2017-Sep-10 11:29N 40°37' W 074°03'0 0.1
2017-Sep-10 10:59N 40°37' W 074°03'0 0.0
2017-Sep-10 10:29N 40°37' W 074°03'0 0.0
2017-Sep-10 09:59N 40°37' W 074°03'0 0.0
2017-Sep-10 09:29N 40°37' W 074°03'0 0.0
2017-Sep-10 08:56N 40°37' W 074°03'0 0.0
2017-Sep-10 08:29N 40°37' W 074°03'0 0.0
2017-Sep-10 07:59N 40°37' W 074°03'0 0.0
2017-Sep-10 07:29N 40°37' W 074°03'0 0.0
2017-Sep-10 07:00N 40°37' W 074°03'0 0.1
2017-Sep-10 06:30N 40°37' W 074°03'1 1.4
2017-Sep-10 06:00N 40°36' W 074°03'1 1.4
2017-Sep-10 05:30N 40°36' W 074°02'0 0.6
2017-Sep-10 05:00N 40°36' W 074°02'1 1.1
2017-Sep-10 04:30N 40°35' W 074°01'0 0.0
2017-Sep-10 03:55N 40°35' W 074°01'0 0.0
2017-Sep-10 03:28N 40°35' W 074°01'0 0.1
2017-Sep-10 02:58N 40°35' W 074°01'0 0.0
2017-Sep-10 02:28N 40°35' W 074°01'0 0.0
2017-Sep-10 01:58N 40°35' W 074°01'0 0.0
2017-Sep-10 01:28N 40°35' W 074°01'0 0.0
2017-Sep-10 00:58N 40°35' W 074°01'0 0.0
2017-Sep-10 00:28N 40°35' W 074°01'0 0.0
2017-Sep-09 23:58N 40°35' W 074°01'0 0.0
2017-Sep-09 23:28N 40°35' W 074°01'0 0.0
2017-Sep-09 22:58N 40°35' W 074°01'0 0.0
2017-Sep-09 22:29N 40°35' W 074°01'0 0.0
2017-Sep-09 21:58N 40°35' W 074°01'0 0.0
2017-Sep-09 21:28N 40°35' W 074°01'0 0.0
2017-Sep-09 20:58N 40°35' W 074°01'0 0.0
2017-Sep-09 20:28N 40°35' W 074°01'0 0.0
2017-Sep-09 19:58N 40°35' W 074°01'0 0.0
2017-Sep-09 19:28N 40°35' W 074°01'0 0.0
2017-Sep-09 18:58N 40°35' W 074°01'0 0.0
2017-Sep-09 18:25N 40°35' W 074°01'0 0.0
2017-Sep-09 17:58N 40°35' W 074°01'0 0.0
2017-Sep-09 17:28N 40°35' W 074°01'0 0.1
2017-Sep-09 16:58N 40°35' W 074°01'0 0.0
2017-Sep-09 16:25N 40°35' W 074°01'0 0.0
2017-Sep-09 15:58N 40°35' W 074°01'0 0.0
2017-Sep-09 15:28N 40°35' W 074°01'0 0.0
2017-Sep-09 14:58N 40°35' W 074°01'0 0.0
2017-Sep-09 14:25N 40°35' W 074°01'0 0.1
2017-Sep-09 13:58N 40°35' W 074°01'0 0.1
2017-Sep-09 13:28N 40°35' W 074°01'0 0.0
2017-Sep-09 12:58N 40°35' W 074°01'0 0.1
2017-Sep-09 12:28N 40°35' W 074°01'0 0.0
2017-Sep-09 11:55N 40°35' W 074°01'0 0.0
2017-Sep-09 11:28N 40°35' W 074°01'0 0.0
2017-Sep-09 10:58N 40°35' W 074°01'0 0.0
2017-Sep-09 10:28N 40°35' W 074°01'0 0.0
2017-Sep-09 09:58N 40°35' W 074°01'0 0.0
2017-Sep-09 09:28N 40°35' W 074°01'0 0.0
2017-Sep-09 08:58N 40°35' W 074°01'0 0.0
2017-Sep-09 08:28N 40°35' W 074°01'0 0.0
2017-Sep-09 07:58N 40°35' W 074°01'0 0.0
2017-Sep-09 07:28N 40°35' W 074°01'0 0.0
2017-Sep-09 06:58N 40°35' W 074°01'0 0.0
2017-Sep-09 06:28N 40°35' W 074°01'0 0.0
2017-Sep-09 05:58N 40°35' W 074°01'0 0.0
2017-Sep-09 05:28N 40°35' W 074°01'0 0.1
2017-Sep-09 04:58N 40°35' W 074°01'0 0.0
2017-Sep-09 04:28N 40°35' W 074°01'0 0.0
2017-Sep-09 03:58N 40°35' W 074°01'0 0.0
2017-Sep-09 03:28N 40°35' W 074°01'0 0.0
2017-Sep-09 02:58N 40°35' W 074°01'0 0.1
2017-Sep-09 02:28N 40°35' W 074°01'0 0.1
2017-Sep-09 01:55N 40°35' W 074°01'0 0.1
2017-Sep-09 01:28N 40°35' W 074°01'0 0.1
2017-Sep-09 00:58N 40°35' W 074°01'0 0.0
2017-Sep-09 00:28N 40°35' W 074°01'0 0.1
2017-Sep-08 23:58N 40°35' W 074°01'0 0.0
2017-Sep-08 23:28N 40°35' W 074°01'0 0.1
2017-Sep-08 22:58N 40°35' W 074°01'0 0.0
2017-Sep-08 22:28N 40°35' W 074°01'0 0.0
2017-Sep-08 21:58N 40°35' W 074°01'0 0.0
2017-Sep-08 21:28N 40°35' W 074°01'0 0.0
2017-Sep-08 20:58N 40°35' W 074°01'0 0.0
2017-Sep-08 20:25N 40°35' W 074°01'  

Dump ship's entire track history